Bogard, Indiana
Current Conditions -  °F | °C
As of 1:55 AM on Friday 19 Dec 2014 (Local Time) from KDCY Reporting Station
Scattered Clouds Scattered Clouds  
Wind Chill: 26°   Ceiling: Unl
Heat Index: 26°   Visibility: 7mi
Dew Point: 22°   Wind: 3mph
Humidity: 88%   Direction: 320°NW
Pressure: 30.28"   Gusts: NA
Location:  38.7791°N, 87.1828°W
Report Text: KDCY 190755Z AUTO 32003KT 7SM SCT055 M03/M05 A3028 RMK AO2 T10351053
Loading
Personal Weather Stations






























Interactive Weather Map New forecast layout! Learn more

10-Day Weather Forecast

Advertisements
Track Severe Weather on mobile